sensor_id;sensor_type;location;lat;lon;timestamp;pressure;altitude;pressure_sealevel;temperature
64904;BMP280;51401;48.882;12.598;2022-07-12T00:01:11;98359.59;;;15.30
64904;BMP280;51401;48.882;12.598;2022-07-12T00:03:36;98352.41;;;15.37
64904;BMP280;51401;48.882;12.598;2022-07-12T00:06:02;98356.88;;;15.44
64904;BMP280;51401;48.882;12.598;2022-07-12T00:08:27;98352.34;;;15.48
64904;BMP280;51401;48.882;12.598;2022-07-12T00:10:53;98348.53;;;15.52
64904;BMP280;51401;48.882;12.598;2022-07-12T00:13:18;98343.31;;;15.56
64904;BMP280;51401;48.882;12.598;2022-07-12T00:15:44;98346.25;;;15.57
64904;BMP280;51401;48.882;12.598;2022-07-12T00:18:09;98347.00;;;15.61
64904;BMP280;51401;48.882;12.598;2022-07-12T00:20:35;98349.94;;;15.63
64904;BMP280;51401;48.882;12.598;2022-07-12T00:23:01;98350.31;;;15.65
64904;BMP280;51401;48.882;12.598;2022-07-12T00:25:26;98354.38;;;15.66
64904;BMP280;51401;48.882;12.598;2022-07-12T00:27:52;98347.69;;;15.65
64904;BMP280;51401;48.882;12.598;2022-07-12T00:30:18;98349.16;;;15.66
64904;BMP280;51401;48.882;12.598;2022-07-12T00:32:43;98342.06;;;15.67
64904;BMP280;51401;48.882;12.598;2022-07-12T00:35:09;98351.03;;;15.62
64904;BMP280;51401;48.882;12.598;2022-07-12T00:37:34;98348.78;;;15.64
64904;BMP280;51401;48.882;12.598;2022-07-12T00:40:00;98347.72;;;15.62
64904;BMP280;51401;48.882;12.598;2022-07-12T00:42:26;98349.59;;;15.61
64904;BMP280;51401;48.882;12.598;2022-07-12T00:44:52;98358.19;;;15.58
64904;BMP280;51401;48.882;12.598;2022-07-12T00:50:20;98344.75;;;15.60
64904;BMP280;51401;48.882;12.598;2022-07-12T00:52:51;98350.72;;;15.60
64904;BMP280;51401;48.882;12.598;2022-07-12T00:55:18;98351.84;;;15.59
64904;BMP280;51401;48.882;12.598;2022-07-12T00:57:43;98346.25;;;15.57
64904;BMP280;51401;48.882;12.598;2022-07-12T01:00:12;98355.63;;;15.55
64904;BMP280;51401;48.882;12.598;2022-07-12T01:02:38;98347.41;;;15.57
64904;BMP280;51401;48.882;12.598;2022-07-12T01:05:05;98348.88;;;15.57
64904;BMP280;51401;48.882;12.598;2022-07-12T01:07:32;98342.50;;;15.58
64904;BMP280;51401;48.882;12.598;2022-07-12T01:09:58;98349.25;;;15.59
64904;BMP280;51401;48.882;12.598;2022-07-12T01:12:24;98348.44;;;15.62
64904;BMP280;51401;48.882;12.598;2022-07-12T01:14:50;98342.09;;;15.63
64904;BMP280;51401;48.882;12.598;2022-07-12T01:17:26;98343.56;;;15.64
64904;BMP280;51401;48.882;12.598;2022-07-12T01:19:53;98336.88;;;15.63
64904;BMP280;51401;48.882;12.598;2022-07-12T01:22:20;98339.03;;;15.68
64904;BMP280;51401;48.882;12.598;2022-07-12T01:24:46;98337.56;;;15.67
64904;BMP280;51401;48.882;12.598;2022-07-12T01:27:12;98339.06;;;15.65
64904;BMP280;51401;48.882;12.598;2022-07-12T01:29:38;98332.34;;;15.67
64904;BMP280;51401;48.882;12.598;2022-07-12T01:32:05;98334.16;;;15.70
64904;BMP280;51401;48.882;12.598;2022-07-12T01:34:54;98338.28;;;15.71
64904;BMP280;51401;48.882;12.598;2022-07-12T01:37:21;98341.28;;;15.70
64904;BMP280;51401;48.882;12.598;2022-07-12T01:39:49;98346.88;;;15.72
64904;BMP280;51401;48.882;12.598;2022-07-12T01:42:15;98342.38;;;15.72
64904;BMP280;51401;48.882;12.598;2022-07-12T01:44:41;98339.75;;;15.72
64904;BMP280;51401;48.882;12.598;2022-07-12T01:47:06;98336.00;;;15.73
64904;BMP280;51401;48.882;12.598;2022-07-12T01:49:31;98338.63;;;15.73
64904;BMP280;51401;48.882;12.598;2022-07-12T01:51:57;98347.59;;;15.72
64904;BMP280;51401;48.882;12.598;2022-07-12T01:54:24;98337.16;;;15.72
64904;BMP280;51401;48.882;12.598;2022-07-12T01:56:50;98343.03;;;15.80
64904;BMP280;51401;48.882;12.598;2022-07-12T01:59:16;98340.47;;;15.76
64904;BMP280;51401;48.882;12.598;2022-07-12T02:01:41;98338.59;;;15.77
64904;BMP280;51401;48.882;12.598;2022-07-12T02:04:08;98344.16;;;15.79
64904;BMP280;51401;48.882;12.598;2022-07-12T02:06:33;98337.81;;;15.80
64904;BMP280;51401;48.882;12.598;2022-07-12T02:08:59;98331.06;;;15.79
64904;BMP280;51401;48.882;12.598;2022-07-12T02:11:24;98336.97;;;15.86
64904;BMP280;51401;48.882;12.598;2022-07-12T02:13:50;98339.25;;;15.84
64904;BMP280;51401;48.882;12.598;2022-07-12T02:16:16;98335.16;;;15.83
64904;BMP280;51401;48.882;12.598;2022-07-12T02:18:41;98338.91;;;15.82
64904;BMP280;51401;48.882;12.598;2022-07-12T02:21:06;98332.63;;;15.76
64904;BMP280;51401;48.882;12.598;2022-07-12T02:23:32;98329.63;;;15.74
64904;BMP280;51401;48.882;12.598;2022-07-12T02:25:57;98339.00;;;15.75
64904;BMP280;51401;48.882;12.598;2022-07-12T02:28:22;98337.84;;;15.73
64904;BMP280;51401;48.882;12.598;2022-07-12T02:30:48;98337.16;;;15.72
64904;BMP280;51401;48.882;12.598;2022-07-12T02:33:13;98343.06;;;15.76
64904;BMP280;51401;48.882;12.598;2022-07-12T02:35:41;98333.00;;;15.75
64904;BMP280;51401;48.882;12.598;2022-07-12T02:38:06;98334.88;;;15.74
64904;BMP280;51401;48.882;12.598;2022-07-12T02:40:32;98343.06;;;15.76
64904;BMP280;51401;48.882;12.598;2022-07-12T02:43:15;98340.09;;;15.74
64904;BMP280;51401;48.882;12.598;2022-07-12T02:45:41;98344.16;;;15.79
64904;BMP280;51401;48.882;12.598;2022-07-12T02:48:06;98346.03;;;15.78
64904;BMP280;51401;48.882;12.598;2022-07-12T02:50:31;98344.56;;;15.77
64904;BMP280;51401;48.882;12.598;2022-07-12T02:52:56;98344.56;;;15.77
64904;BMP280;51401;48.882;12.598;2022-07-12T02:55:22;98344.13;;;15.82
64904;BMP280;51401;48.882;12.598;2022-07-12T02:57:47;98346.03;;;15.78
64904;BMP280;51401;48.882;12.598;2022-07-12T03:00:14;98339.69;;;15.79
64904;BMP280;51401;48.882;12.598;2022-07-12T03:02:39;98344.47;;;15.84
64904;BMP280;51401;48.882;12.598;2022-07-12T03:05:05;98348.97;;;15.84
64904;BMP280;51401;48.882;12.598;2022-07-12T03:07:30;98340.78;;;15.82
64904;BMP280;51401;48.882;12.598;2022-07-12T03:09:55;98345.66;;;15.80
64904;BMP280;51401;48.882;12.598;2022-07-12T03:12:21;98354.28;;;15.77
64904;BMP280;51401;48.882;12.598;2022-07-12T03:14:46;98350.56;;;15.74
64904;BMP280;51401;48.882;12.598;2022-07-12T03:17:11;98358.06;;;15.72
64904;BMP280;51401;48.882;12.598;2022-07-12T03:19:37;98352.47;;;15.70
64904;BMP280;51401;48.882;12.598;2022-07-12T03:22:02;98352.78;;;15.76
64904;BMP280;51401;48.882;12.598;2022-07-12T03:24:27;98355.06;;;15.74
64904;BMP280;51401;48.882;12.598;2022-07-12T03:26:53;98363.28;;;15.72
64904;BMP280;51401;48.882;12.598;2022-07-12T03:29:18;98365.56;;;15.70
64904;BMP280;51401;48.882;12.598;2022-07-12T03:31:43;98364.78;;;15.73
64904;BMP280;51401;48.882;12.598;2022-07-12T03:34:09;98371.13;;;15.72
64904;BMP280;51401;48.882;12.598;2022-07-12T03:36:34;98370.78;;;15.70
64904;BMP280;51401;48.882;12.598;2022-07-12T03:38:59;98380.47;;;15.73
64904;BMP280;51401;48.882;12.598;2022-07-12T03:41:25;98378.22;;;15.75
64904;BMP280;51401;48.882;12.598;2022-07-12T03:43:50;98378.94;;;15.76
64904;BMP280;51401;48.882;12.598;2022-07-12T03:46:15;98380.41;;;15.77
64904;BMP280;51401;48.882;12.598;2022-07-12T03:48:40;98378.22;;;15.75
64904;BMP280;51401;48.882;12.598;2022-07-12T03:51:06;98372.97;;;15.75
64904;BMP280;51401;48.882;12.598;2022-07-12T03:53:31;98381.13;;;15.81
64904;BMP280;51401;48.882;12.598;2022-07-12T03:55:56;98382.63;;;15.78
64904;BMP280;51401;48.882;12.598;2022-07-12T03:58:22;98378.91;;;15.79
64904;BMP280;51401;48.882;12.598;2022-07-12T04:00:47;98386.41;;;15.77
64904;BMP280;51401;48.882;12.598;2022-07-12T04:03:12;98384.50;;;15.81
64904;BMP280;51401;48.882;12.598;2022-07-12T04:05:38;98389.28;;;15.86
64904;BMP280;51401;48.882;12.598;2022-07-12T04:08:04;98389.63;;;15.88
64904;BMP280;51401;48.882;12.598;2022-07-12T04:10:29;98386.69;;;15.86
64904;BMP280;51401;48.882;12.598;2022-07-12T04:12:55;98383.56;;;15.94
64904;BMP280;51401;48.882;12.598;2022-07-12T04:15:20;98371.97;;;15.99
64904;BMP280;51401;48.882;12.598;2022-07-12T04:17:46;98392.09;;;16.02
64904;BMP280;51401;48.882;12.598;2022-07-12T04:20:11;98395.38;;;16.13
64904;BMP280;51401;48.882;12.598;2022-07-12T04:22:37;98394.13;;;16.20
64904;BMP280;51401;48.882;12.598;2022-07-12T04:25:04;98395.59;;;16.21
64904;BMP280;51401;48.882;12.598;2022-07-12T04:27:29;98397.03;;;16.26
64904;BMP280;51401;48.882;12.598;2022-07-12T04:29:54;98395.94;;;16.23
64904;BMP280;51401;48.882;12.598;2022-07-12T04:32:20;98397.00;;;16.29
64904;BMP280;51401;48.882;12.598;2022-07-12T04:34:45;98401.47;;;16.32
64904;BMP280;51401;48.882;12.598;2022-07-12T04:37:11;98393.63;;;16.32
64904;BMP280;51401;48.882;12.598;2022-07-12T04:39:36;98394.75;;;16.31
64904;BMP280;51401;48.882;12.598;2022-07-12T04:42:02;98396.31;;;16.25
64904;BMP280;51401;48.882;12.598;2022-07-12T04:44:27;98393.31;;;16.23
64904;BMP280;51401;48.882;12.598;2022-07-12T04:46:53;98395.59;;;16.21
64904;BMP280;51401;48.882;12.598;2022-07-12T04:49:18;98391.06;;;16.55
64904;BMP280;51401;48.882;12.598;2022-07-12T04:51:43;98392.88;;;16.61
64904;BMP280;51401;48.882;12.598;2022-07-12T04:54:09;98389.06;;;16.66
64904;BMP280;51401;48.882;12.598;2022-07-12T04:56:34;98396.16;;;16.91
64904;BMP280;51401;48.882;12.598;2022-07-12T04:59:00;98399.47;;;16.95
64904;BMP280;51401;48.882;12.598;2022-07-12T05:01:25;98417.34;;;17.45
64904;BMP280;51401;48.882;12.598;2022-07-12T05:03:51;98408.47;;;18.35
64904;BMP280;51401;48.882;12.598;2022-07-12T05:06:16;98416.41;;;18.51
64904;BMP280;51401;48.882;12.598;2022-07-12T05:08:41;98424.88;;;18.74
64904;BMP280;51401;48.882;12.598;2022-07-12T05:11:06;98423.16;;;19.58
64904;BMP280;51401;48.882;12.598;2022-07-12T05:13:32;98426.56;;;19.59
64904;BMP280;51401;48.882;12.598;2022-07-12T05:15:57;98425.22;;;19.95
64904;BMP280;51401;48.882;12.598;2022-07-12T05:18:23;98427.59;;;20.66
64904;BMP280;51401;48.882;12.598;2022-07-12T05:20:48;98425.59;;;21.16
64904;BMP280;51401;48.882;12.598;2022-07-12T05:23:13;98427.78;;;21.51
64904;BMP280;51401;48.882;12.598;2022-07-12T05:25:39;98429.22;;;21.94
64904;BMP280;51401;48.882;12.598;2022-07-12T05:28:04;98435.06;;;21.89
64904;BMP280;51401;48.882;12.598;2022-07-12T05:30:30;98429.88;;;22.07
64904;BMP280;51401;48.882;12.598;2022-07-12T05:32:55;98427.47;;;22.30
64904;BMP280;51401;48.882;12.598;2022-07-12T05:35:20;98427.28;;;22.15
64904;BMP280;51401;48.882;12.598;2022-07-12T05:37:45;98425.44;;;21.31
64904;BMP280;51401;48.882;12.598;2022-07-12T05:40:11;98431.59;;;21.16
64904;BMP280;51401;48.882;12.598;2022-07-12T05:42:37;98432.31;;;21.71
64904;BMP280;51401;48.882;12.598;2022-07-12T05:45:03;98428.94;;;21.92
64904;BMP280;51401;48.882;12.598;2022-07-12T05:47:28;98435.94;;;22.07
64904;BMP280;51401;48.882;12.598;2022-07-12T05:49:54;98431.88;;;22.24
64904;BMP280;51401;48.882;12.598;2022-07-12T05:52:19;98435.66;;;22.61
64904;BMP280;51401;48.882;12.598;2022-07-12T05:55:03;98440.72;;;22.77
64904;BMP280;51401;48.882;12.598;2022-07-12T05:57:29;98435.69;;;22.70
64904;BMP280;51401;48.882;12.598;2022-07-12T05:59:54;98442.94;;;22.79
64904;BMP280;51401;48.882;12.598;2022-07-12T06:02:19;98444.84;;;22.31
64904;BMP280;51401;48.882;12.598;2022-07-12T06:04:45;98451.66;;;23.14
64904;BMP280;51401;48.882;12.598;2022-07-12T06:07:10;98447.97;;;23.21
64904;BMP280;51401;48.882;12.598;2022-07-12T06:09:35;98453.41;;;23.35
64904;BMP280;51401;48.882;12.598;2022-07-12T06:12:01;98448.06;;;23.70
64904;BMP280;51401;48.882;12.598;2022-07-12T06:14:27;98458.13;;;23.31
64904;BMP280;51401;48.882;12.598;2022-07-12T06:16:52;98460.75;;;23.22
64904;BMP280;51401;48.882;12.598;2022-07-12T06:19:18;98468.13;;;23.27
64904;BMP280;51401;48.882;12.598;2022-07-12T06:21:43;98473.09;;;23.43
64904;BMP280;51401;48.882;12.598;2022-07-12T06:24:08;98464.41;;;22.89
64904;BMP280;51401;48.882;12.598;2022-07-12T06:26:34;98461.53;;;22.66
64904;BMP280;51401;48.882;12.598;2022-07-12T06:28:59;98470.00;;;23.36
64904;BMP280;51401;48.882;12.598;2022-07-12T06:31:24;98463.19;;;22.34
64904;BMP280;51401;48.882;12.598;2022-07-12T06:33:50;98466.47;;;23.12
64904;BMP280;51401;48.882;12.598;2022-07-12T06:36:15;98467.25;;;23.21
64904;BMP280;51401;48.882;12.598;2022-07-12T06:38:41;98463.38;;;22.96
64904;BMP280;51401;48.882;12.598;2022-07-12T06:41:06;98467.78;;;23.08
64904;BMP280;51401;48.882;12.598;2022-07-12T06:43:31;98469.63;;;23.46
64904;BMP280;51401;48.882;12.598;2022-07-12T06:45:57;98465.91;;;22.99
64904;BMP280;51401;48.882;12.598;2022-07-12T06:48:22;98466.97;;;23.28
64904;BMP280;51401;48.882;12.598;2022-07-12T06:50:47;98467.19;;;23.74
64904;BMP280;51401;48.882;12.598;2022-07-12T06:53:13;98465.03;;;24.14
64904;BMP280;51401;48.882;12.598;2022-07-12T06:55:38;98459.66;;;24.31
64904;BMP280;51401;48.882;12.598;2022-07-12T06:58:03;98465.28;;;24.56
64904;BMP280;51401;48.882;12.598;2022-07-12T07:00:29;98467.59;;;23.90
64904;BMP280;51401;48.882;12.598;2022-07-12T07:02:54;98469.81;;;23.92
64904;BMP280;51401;48.882;12.598;2022-07-12T07:05:20;98473.66;;;23.91
64904;BMP280;51401;48.882;12.598;2022-07-12T07:07:45;98465.66;;;24.00
64904;BMP280;51401;48.882;12.598;2022-07-12T07:10:10;98470.31;;;23.29
64904;BMP280;51401;48.882;12.598;2022-07-12T07:12:36;98465.25;;;23.84
64904;BMP280;51401;48.882;12.598;2022-07-12T07:15:01;98472.31;;;24.36
64904;BMP280;51401;48.882;12.598;2022-07-12T07:17:26;98469.41;;;23.49
64904;BMP280;51401;48.882;12.598;2022-07-12T07:19:52;98482.72;;;24.16
64904;BMP280;51401;48.882;12.598;2022-07-12T07:22:17;98471.44;;;24.85
64904;BMP280;51401;48.882;12.598;2022-07-12T07:24:43;98477.63;;;25.28
64904;BMP280;51401;48.882;12.598;2022-07-12T07:27:09;98476.09;;;24.99
64904;BMP280;51401;48.882;12.598;2022-07-12T07:29:34;98473.16;;;24.10
64904;BMP280;51401;48.882;12.598;2022-07-12T07:32:18;98481.03;;;25.06
64904;BMP280;51401;48.882;12.598;2022-07-12T07:34:44;98471.94;;;25.35
64904;BMP280;51401;48.882;12.598;2022-07-12T07:37:10;98470.69;;;25.45
64904;BMP280;51401;48.882;12.598;2022-07-12T07:39:35;98483.97;;;24.62
64904;BMP280;51401;48.882;12.598;2022-07-12T07:42:01;98474.97;;;25.42
64904;BMP280;51401;48.882;12.598;2022-07-12T07:44:27;98472.44;;;25.11
64904;BMP280;51401;48.882;12.598;2022-07-12T07:46:52;98483.84;;;25.25
64904;BMP280;51401;48.882;12.598;2022-07-12T07:49:18;98479.22;;;25.77
64904;BMP280;51401;48.882;12.598;2022-07-12T07:51:43;98485.25;;;25.92
64904;BMP280;51401;48.882;12.598;2022-07-12T07:54:08;98484.06;;;25.93
64904;BMP280;51401;48.882;12.598;2022-07-12T07:56:33;98487.16;;;25.91
64904;BMP280;51401;48.882;12.598;2022-07-12T07:58:59;98491.31;;;26.40
64904;BMP280;51401;48.882;12.598;2022-07-12T08:01:24;98490.31;;;25.90
64904;BMP280;51401;48.882;12.598;2022-07-12T08:04:16;98491.31;;;26.07
64904;BMP280;51401;48.882;12.598;2022-07-12T08:06:43;98489.84;;;26.39
64904;BMP280;51401;48.882;12.598;2022-07-12T08:09:09;98485.88;;;26.15
64904;BMP280;51401;48.882;12.598;2022-07-12T08:11:35;98489.41;;;26.41
64904;BMP280;51401;48.882;12.598;2022-07-12T08:14:00;98479.84;;;24.84
64904;BMP280;51401;48.882;12.598;2022-07-12T08:16:26;98491.03;;;25.62
64904;BMP280;51401;48.882;12.598;2022-07-12T08:18:52;98489.19;;;25.68
64904;BMP280;51401;48.882;12.598;2022-07-12T08:21:18;98488.47;;;26.63
64904;BMP280;51401;48.882;12.598;2022-07-12T08:23:43;98489.59;;;26.57
64904;BMP280;51401;48.882;12.598;2022-07-12T08:26:08;98484.53;;;27.18
64904;BMP280;51401;48.882;12.598;2022-07-12T08:28:34;98490.16;;;27.00
64904;BMP280;51401;48.882;12.598;2022-07-12T08:30:59;98480.84;;;26.71
64904;BMP280;51401;48.882;12.598;2022-07-12T08:33:24;98488.38;;;26.92
64904;BMP280;51401;48.882;12.598;2022-07-12T08:35:49;98484.47;;;27.62
64904;BMP280;51401;48.882;12.598;2022-07-12T08:38:15;98483.69;;;27.57
64904;BMP280;51401;48.882;12.598;2022-07-12T08:40:41;98482.13;;;27.45
64904;BMP280;51401;48.882;12.598;2022-07-12T08:43:07;98474.25;;;26.47
64904;BMP280;51401;48.882;12.598;2022-07-12T08:45:32;98475.78;;;27.37
64904;BMP280;51401;48.882;12.598;2022-07-12T08:47:57;98488.69;;;27.74
64904;BMP280;51401;48.882;12.598;2022-07-12T08:50:23;98493.91;;;27.88
64904;BMP280;51401;48.882;12.598;2022-07-12T08:52:51;98481.59;;;27.41
64904;BMP280;51401;48.882;12.598;2022-07-12T08:55:22;98490.59;;;26.26
64904;BMP280;51401;48.882;12.598;2022-07-12T08:57:49;98492.81;;;26.27
64904;BMP280;51401;48.882;12.598;2022-07-12T09:00:15;98494.47;;;26.78
64904;BMP280;51401;48.882;12.598;2022-07-12T09:05:14;98491.47;;;27.90
64904;BMP280;51401;48.882;12.598;2022-07-12T09:07:39;98502.97;;;28.02
64904;BMP280;51401;48.882;12.598;2022-07-12T09:10:09;98503.06;;;28.64
64904;BMP280;51401;48.882;12.598;2022-07-12T09:12:35;98506.53;;;28.76
64904;BMP280;51401;48.882;12.598;2022-07-12T09:15:10;98497.41;;;28.41
64904;BMP280;51401;48.882;12.598;2022-07-12T09:17:36;98494.50;;;28.03
64904;BMP280;51401;48.882;12.598;2022-07-12T09:20:01;98497.78;;;28.23
64904;BMP280;51401;48.882;12.598;2022-07-12T09:22:27;98482.22;;;28.16
64904;BMP280;51401;48.882;12.598;2022-07-12T09:24:52;98484.03;;;28.00
64904;BMP280;51401;48.882;12.598;2022-07-12T09:27:24;98477.16;;;27.08
64904;BMP280;51401;48.882;12.598;2022-07-12T09:29:50;98475.28;;;26.35
64904;BMP280;51401;48.882;12.598;2022-07-12T09:32:16;98477.19;;;25.58
64904;BMP280;51401;48.882;12.598;2022-07-12T09:35:02;98482.25;;;25.70
64904;BMP280;51401;48.882;12.598;2022-07-12T09:37:46;98504.97;;;25.71
64904;BMP280;51401;48.882;12.598;2022-07-12T09:40:12;98485.44;;;25.60
64904;BMP280;51401;48.882;12.598;2022-07-12T09:42:39;98489.56;;;25.61
64904;BMP280;51401;48.882;12.598;2022-07-12T09:45:07;98498.00;;;25.60
64904;BMP280;51401;48.882;12.598;2022-07-12T09:47:32;98488.50;;;26.30
64904;BMP280;51401;48.882;12.598;2022-07-12T09:49:58;98491.97;;;25.59
64904;BMP280;51401;48.882;12.598;2022-07-12T09:52:27;98478.03;;;25.50
64904;BMP280;51401;48.882;12.598;2022-07-12T09:54:54;98475.19;;;24.79
64904;BMP280;51401;48.882;12.598;2022-07-12T09:57:29;98495.50;;;25.05
64904;BMP280;51401;48.882;12.598;2022-07-12T10:02:21;98497.16;;;26.98
64904;BMP280;51401;48.882;12.598;2022-07-12T10:04:47;98494.13;;;27.85
64904;BMP280;51401;48.882;12.598;2022-07-12T10:07:13;98496.84;;;27.96
64904;BMP280;51401;48.882;12.598;2022-07-12T10:09:40;98498.75;;;28.26
64904;BMP280;51401;48.882;12.598;2022-07-12T10:12:08;98500.91;;;28.68
64904;BMP280;51401;48.882;12.598;2022-07-12T10:14:36;98500.03;;;28.93
64904;BMP280;51401;48.882;12.598;2022-07-12T10:17:03;98485.47;;;27.95
64904;BMP280;51401;48.882;12.598;2022-07-12T10:19:32;98484.69;;;27.34
64904;BMP280;51401;48.882;12.598;2022-07-12T10:22:02;98506.81;;;28.88
64904;BMP280;51401;48.882;12.598;2022-07-12T10:26:59;98488.06;;;28.20
64904;BMP280;51401;48.882;12.598;2022-07-12T10:29:25;98478.38;;;26.67
64904;BMP280;51401;48.882;12.598;2022-07-12T10:31:51;98488.31;;;27.31
64904;BMP280;51401;48.882;12.598;2022-07-12T10:34:24;98479.38;;;27.14
64904;BMP280;51401;48.882;12.598;2022-07-12T10:39:25;98489.47;;;28.62
64904;BMP280;51401;48.882;12.598;2022-07-12T10:44:39;98475.69;;;28.23
64904;BMP280;51401;48.882;12.598;2022-07-12T10:47:07;98482.84;;;29.05
64904;BMP280;51401;48.882;12.598;2022-07-12T10:49:35;98472.63;;;29.03
64904;BMP280;51401;48.882;12.598;2022-07-12T10:57:04;98480.59;;;28.87
64904;BMP280;51401;48.882;12.598;2022-07-12T10:59:33;98479.72;;;29.28
64904;BMP280;51401;48.882;12.598;2022-07-12T11:01:59;98472.41;;;29.12
64904;BMP280;51401;48.882;12.598;2022-07-12T11:04:26;98475.09;;;29.23
64904;BMP280;51401;48.882;12.598;2022-07-12T11:06:52;98486.78;;;29.52
64904;BMP280;51401;48.882;12.598;2022-07-12T11:09:21;98486.19;;;30.18
64904;BMP280;51401;48.882;12.598;2022-07-12T11:11:48;98474.16;;;29.63
64904;BMP280;51401;48.882;12.598;2022-07-12T11:14:36;98459.31;;;29.25
64904;BMP280;51401;48.882;12.598;2022-07-12T11:17:02;98491.38;;;29.95
64904;BMP280;51401;48.882;12.598;2022-07-12T11:19:29;98470.97;;;29.38
64904;BMP280;51401;48.882;12.598;2022-07-12T11:21:55;98468.75;;;29.04
64904;BMP280;51401;48.882;12.598;2022-07-12T11:24:25;98472.31;;;28.28
64904;BMP280;51401;48.882;12.598;2022-07-12T11:26:51;98468.16;;;27.55
64904;BMP280;51401;48.882;12.598;2022-07-12T11:29:17;98479.16;;;28.34
64904;BMP280;51401;48.882;12.598;2022-07-12T11:31:43;98477.28;;;29.46
64904;BMP280;51401;48.882;12.598;2022-07-12T11:34:23;98473.66;;;29.54
64904;BMP280;51401;48.882;12.598;2022-07-12T11:36:53;98474.81;;;30.12
64904;BMP280;51401;48.882;12.598;2022-07-12T11:39:36;98480.00;;;30.50
64904;BMP280;51401;48.882;12.598;2022-07-12T11:42:02;98478.59;;;30.89
64904;BMP280;51401;48.882;12.598;2022-07-12T11:47:07;98470.84;;;30.35
64904;BMP280;51401;48.882;12.598;2022-07-12T11:49:32;98474.22;;;30.41
64904;BMP280;51401;48.882;12.598;2022-07-12T11:51:58;98474.22;;;30.41
64904;BMP280;51401;48.882;12.598;2022-07-12T11:54:26;98467.78;;;30.65
64904;BMP280;51401;48.882;12.598;2022-07-12T11:57:08;98465.06;;;30.76
64904;BMP280;51401;48.882;12.598;2022-07-12T11:59:34;98461.22;;;30.55
64904;BMP280;51401;48.882;12.598;2022-07-12T12:02:04;98463.06;;;30.15
64904;BMP280;51401;48.882;12.598;2022-07-12T12:04:29;98456.34;;;29.93
64904;BMP280;51401;48.882;12.598;2022-07-12T12:06:54;98463.78;;;30.26
64904;BMP280;51401;48.882;12.598;2022-07-12T12:09:19;98461.94;;;29.89
64904;BMP280;51401;48.882;12.598;2022-07-12T12:11:45;98458.56;;;30.55
64904;BMP280;51401;48.882;12.598;2022-07-12T12:14:10;98451.13;;;30.77
64904;BMP280;51401;48.882;12.598;2022-07-12T12:16:35;98458.75;;;31.02
64904;BMP280;51401;48.882;12.598;2022-07-12T12:19:01;98453.88;;;31.64
64904;BMP280;51401;48.882;12.598;2022-07-12T12:21:26;98460.09;;;32.19
64904;BMP280;51401;48.882;12.598;2022-07-12T12:24:08;98445.69;;;30.94
64904;BMP280;51401;48.882;12.598;2022-07-12T12:26:34;98435.75;;;29.55
64904;BMP280;51401;48.882;12.598;2022-07-12T12:28:59;98443.94;;;29.04
64904;BMP280;51401;48.882;12.598;2022-07-12T12:31:27;98445.94;;;29.41
64904;BMP280;51401;48.882;12.598;2022-07-12T12:33:54;98446.34;;;28.85
64904;BMP280;51401;48.882;12.598;2022-07-12T12:36:35;98442.97;;;27.86
64904;BMP280;51401;48.882;12.598;2022-07-12T12:39:01;98450.16;;;28.58
64904;BMP280;51401;48.882;12.598;2022-07-12T12:41:29;98451.78;;;29.39
64904;BMP280;51401;48.882;12.598;2022-07-12T12:44:03;98451.28;;;29.19
64904;BMP280;51401;48.882;12.598;2022-07-12T12:46:45;98459.84;;;30.44
64904;BMP280;51401;48.882;12.598;2022-07-12T12:49:10;98454.88;;;31.03
64904;BMP280;51401;48.882;12.598;2022-07-12T12:51:53;98448.56;;;31.30
64904;BMP280;51401;48.882;12.598;2022-07-12T12:54:33;98456.31;;;31.62
64904;BMP280;51401;48.882;12.598;2022-07-12T12:56:58;98459.81;;;32.22
64904;BMP280;51401;48.882;12.598;2022-07-12T12:59:24;98456.44;;;31.22
64904;BMP280;51401;48.882;12.598;2022-07-12T13:01:49;98454.78;;;30.35
64904;BMP280;51401;48.882;12.598;2022-07-12T13:04:14;98439.94;;;31.13
64904;BMP280;51401;48.882;12.598;2022-07-12T13:06:40;98450.19;;;30.70
64904;BMP280;51401;48.882;12.598;2022-07-12T13:09:05;98453.72;;;31.28
64904;BMP280;51401;48.882;12.598;2022-07-12T13:11:30;98447.78;;;31.06
64904;BMP280;51401;48.882;12.598;2022-07-12T13:13:55;98446.03;;;31.08
64904;BMP280;51401;48.882;12.598;2022-07-12T13:16:21;98439.44;;;31.90
64904;BMP280;51401;48.882;12.598;2022-07-12T13:18:47;98435.38;;;32.93
64904;BMP280;51401;48.882;12.598;2022-07-12T13:21:12;98439.06;;;32.41
64904;BMP280;51401;48.882;12.598;2022-07-12T13:23:37;98445.81;;;31.88
64904;BMP280;51401;48.882;12.598;2022-07-12T13:26:02;98447.16;;;32.35
64904;BMP280;51401;48.882;12.598;2022-07-12T13:28:28;98449.69;;;32.52
64904;BMP280;51401;48.882;12.598;2022-07-12T13:30:53;98451.41;;;32.49
64904;BMP280;51401;48.882;12.598;2022-07-12T13:33:20;98452.38;;;31.92
64904;BMP280;51401;48.882;12.598;2022-07-12T13:35:45;98438.31;;;32.22
64904;BMP280;51401;48.882;12.598;2022-07-12T13:38:12;98454.97;;;33.19
64904;BMP280;51401;48.882;12.598;2022-07-12T13:40:37;98451.75;;;33.64
64904;BMP280;51401;48.882;12.598;2022-07-12T13:43:02;98448.28;;;34.14
64904;BMP280;51401;48.882;12.598;2022-07-12T13:45:29;98449.00;;;32.64
64904;BMP280;51401;48.882;12.598;2022-07-12T13:47:54;98451.66;;;32.82
64904;BMP280;51401;48.882;12.598;2022-07-12T13:50:21;98444.59;;;33.53
64904;BMP280;51401;48.882;12.598;2022-07-12T13:52:48;98449.25;;;33.53
64904;BMP280;51401;48.882;12.598;2022-07-12T13:55:15;98457.41;;;32.91
64904;BMP280;51401;48.882;12.598;2022-07-12T13:57:41;98449.91;;;32.84
64904;BMP280;51401;48.882;12.598;2022-07-12T14:00:14;98449.91;;;32.84
64904;BMP280;51401;48.882;12.598;2022-07-12T14:02:43;98450.94;;;33.69
64904;BMP280;51401;48.882;12.598;2022-07-12T14:05:09;98449.25;;;34.04
64904;BMP280;51401;48.882;12.598;2022-07-12T14:07:37;98446.38;;;33.64
64904;BMP280;51401;48.882;12.598;2022-07-12T14:10:03;98440.97;;;33.26
64904;BMP280;51401;48.882;12.598;2022-07-12T14:12:28;98447.56;;;33.25
64904;BMP280;51401;48.882;12.598;2022-07-12T14:14:54;98448.81;;;32.44
64904;BMP280;51401;48.882;12.598;2022-07-12T14:17:47;98438.53;;;32.06